sensor_id;sensor_type;location;lat;lon;timestamp;pressure;altitude;pressure_sealevel;temperature;humidity
11049;BME280;5577;42.706;23.160;2023-09-19T00:01:17;94575.72;;;14.59;100.00
11049;BME280;5577;42.706;23.160;2023-09-19T00:04:03;94560.75;;;14.51;100.00
11049;BME280;5577;42.706;23.160;2023-09-19T00:06:53;94572.75;;;14.38;100.00
11049;BME280;5577;42.706;23.160;2023-09-19T00:09:37;94578.47;;;14.39;100.00
11049;BME280;5577;42.706;23.160;2023-09-19T00:12:21;94575.25;;;14.27;100.00
11049;BME280;5577;42.706;23.160;2023-09-19T00:15:05;94568.03;;;14.27;100.00
11049;BME280;5577;42.706;23.160;2023-09-19T00:17:51;94566.91;;;14.28;100.00
11049;BME280;5577;42.706;23.160;2023-09-19T00:20:37;94556.97;;;14.25;100.00
11049;BME280;5577;42.706;23.160;2023-09-19T00:23:22;94556.47;;;14.20;100.00
11049;BME280;5577;42.706;23.160;2023-09-19T00:26:06;94556.09;;;14.21;100.00
11049;BME280;5577;42.706;23.160;2023-09-19T00:28:53;94559.63;;;14.03;100.00
11049;BME280;5577;42.706;23.160;2023-09-19T00:31:37;94561.94;;;14.04;100.00
11049;BME280;5577;42.706;23.160;2023-09-19T00:34:21;94514.47;;;13.84;100.00
11049;BME280;5577;42.706;23.160;2023-09-19T00:37:06;94558.91;;;14.06;100.00
11049;BME280;5577;42.706;23.160;2023-09-19T00:39:49;94561.56;;;14.06;100.00
11049;BME280;5577;42.706;23.160;2023-09-19T00:42:33;94559.38;;;13.89;100.00
11049;BME280;5577;42.706;23.160;2023-09-19T00:45:17;94560.34;;;13.77;100.00
11049;BME280;5577;42.706;23.160;2023-09-19T00:48:02;94554.03;;;13.85;100.00
11049;BME280;5577;42.706;23.160;2023-09-19T00:50:48;94565.84;;;13.88;100.00
11049;BME280;5577;42.706;23.160;2023-09-19T00:53:33;94548.28;;;13.83;100.00
11049;BME280;5577;42.706;23.160;2023-09-19T00:56:18;94535.56;;;13.73;100.00
11049;BME280;5577;42.706;23.160;2023-09-19T00:59:03;94552.59;;;13.91;100.00
11049;BME280;5577;42.706;23.160;2023-09-19T01:01:47;94549.47;;;13.86;100.00
11049;BME280;5577;42.706;23.160;2023-09-19T01:04:37;94555.16;;;13.84;100.00
11049;BME280;5577;42.706;23.160;2023-09-19T01:07:21;94557.56;;;13.70;100.00
11049;BME280;5577;42.706;23.160;2023-09-19T01:10:09;94558.06;;;13.76;100.00
11049;BME280;5577;42.706;23.160;2023-09-19T01:13:21;94558.63;;;13.66;100.00
11049;BME280;5577;42.706;23.160;2023-09-19T01:23:10;94552.19;;;13.67;100.00
11049;BME280;5577;42.706;23.160;2023-09-19T01:32:16;94551.28;;;13.59;100.00
11049;BME280;5577;42.706;23.160;2023-09-19T01:35:03;94545.25;;;13.62;100.00
11049;BME280;5577;42.706;23.160;2023-09-19T01:37:50;94554.59;;;13.53;100.00
11049;BME280;5577;42.706;23.160;2023-09-19T01:40:41;94565.09;;;13.65;100.00
11049;BME280;5577;42.706;23.160;2023-09-19T01:43:37;94528.09;;;13.37;100.00
11049;BME280;5577;42.706;23.160;2023-09-19T01:46:34;94556.00;;;13.47;100.00
11049;BME280;5577;42.706;23.160;2023-09-19T01:49:31;94556.47;;;13.52;100.00
11049;BME280;5577;42.706;23.160;2023-09-19T01:52:19;94544.97;;;13.45;100.00
11049;BME280;5577;42.706;23.160;2023-09-19T01:55:09;94547.44;;;13.57;100.00
11049;BME280;5577;42.706;23.160;2023-09-19T01:58:04;94546.63;;;13.53;100.00
11049;BME280;5577;42.706;23.160;2023-09-19T02:00:51;94549.22;;;13.49;100.00
11049;BME280;5577;42.706;23.160;2023-09-19T02:03:38;94550.44;;;13.55;100.00
11049;BME280;5577;42.706;23.160;2023-09-19T02:06:24;94538.59;;;13.49;100.00
11049;BME280;5577;42.706;23.160;2023-09-19T02:09:09;94544.31;;;13.51;100.00
11049;BME280;5577;42.706;23.160;2023-09-19T02:11:53;94538.97;;;13.51;100.00
11049;BME280;5577;42.706;23.160;2023-09-19T02:14:39;94546.56;;;13.49;100.00
11049;BME280;5577;42.706;23.160;2023-09-19T02:17:23;94555.53;;;13.41;100.00
11049;BME280;5577;42.706;23.160;2023-09-19T02:20:11;94494.91;;;12.90;100.00
11049;BME280;5577;42.706;23.160;2023-09-19T02:22:58;94554.63;;;13.34;100.00
11049;BME280;5577;42.706;23.160;2023-09-19T02:25:43;94551.69;;;13.39;100.00
11049;BME280;5577;42.706;23.160;2023-09-19T02:28:27;94548.88;;;13.32;100.00
11049;BME280;5577;42.706;23.160;2023-09-19T02:31:15;94551.56;;;13.32;100.00
11049;BME280;5577;42.706;23.160;2023-09-19T02:34:00;94527.56;;;13.09;100.00
11049;BME280;5577;42.706;23.160;2023-09-19T02:36:44;94535.81;;;13.23;100.00
11049;BME280;5577;42.706;23.160;2023-09-19T02:39:28;94526.66;;;13.21;100.00
11049;BME280;5577;42.706;23.160;2023-09-19T02:42:12;94528.63;;;13.24;100.00
11049;BME280;5577;42.706;23.160;2023-09-19T02:44:56;94521.63;;;13.16;100.00
11049;BME280;5577;42.706;23.160;2023-09-19T02:47:40;94522.69;;;13.11;100.00
11049;BME280;5577;42.706;23.160;2023-09-19T02:50:24;94522.00;;;13.14;100.00
11049;BME280;5577;42.706;23.160;2023-09-19T02:53:08;94521.06;;;13.07;100.00
11049;BME280;5577;42.706;23.160;2023-09-19T02:55:56;94485.91;;;12.75;100.00
11049;BME280;5577;42.706;23.160;2023-09-19T02:58:40;94512.28;;;13.03;100.00
11049;BME280;5577;42.706;23.160;2023-09-19T03:01:24;94507.44;;;13.08;100.00
11049;BME280;5577;42.706;23.160;2023-09-19T03:04:08;94504.09;;;13.11;100.00
11049;BME280;5577;42.706;23.160;2023-09-19T03:06:55;94516.69;;;13.14;100.00
11049;BME280;5577;42.706;23.160;2023-09-19T03:09:42;94514.59;;;13.04;100.00
11049;BME280;5577;42.706;23.160;2023-09-19T03:12:27;94508.56;;;13.07;100.00
11049;BME280;5577;42.706;23.160;2023-09-19T03:15:11;94508.00;;;12.98;100.00
11049;BME280;5577;42.706;23.160;2023-09-19T03:17:55;94509.78;;;12.94;100.00
11049;BME280;5577;42.706;23.160;2023-09-19T03:20:39;94490.22;;;12.83;100.00
11049;BME280;5577;42.706;23.160;2023-09-19T03:23:23;94500.78;;;12.80;100.00
11049;BME280;5577;42.706;23.160;2023-09-19T03:26:07;94507.50;;;12.74;100.00
11049;BME280;5577;42.706;23.160;2023-09-19T03:28:52;94511.22;;;12.69;100.00
11049;BME280;5577;42.706;23.160;2023-09-19T03:31:37;94505.59;;;12.74;100.00
11049;BME280;5577;42.706;23.160;2023-09-19T03:34:21;94509.94;;;12.63;100.00
11049;BME280;5577;42.706;23.160;2023-09-19T03:37:04;94516.16;;;12.71;100.00
11049;BME280;5577;42.706;23.160;2023-09-19T03:39:49;94517.34;;;12.73;100.00
11049;BME280;5577;42.706;23.160;2023-09-19T03:42:33;94521.88;;;12.73;100.00
11049;BME280;5577;42.706;23.160;2023-09-19T03:45:19;94521.34;;;12.83;100.00
11049;BME280;5577;42.706;23.160;2023-09-19T03:48:11;94523.09;;;12.75;100.00
11049;BME280;5577;42.706;23.160;2023-09-19T03:50:55;94525.75;;;12.75;100.00
11049;BME280;5577;42.706;23.160;2023-09-19T03:53:40;94535.66;;;12.78;100.00
11049;BME280;5577;42.706;23.160;2023-09-19T03:56:24;94525.59;;;12.68;100.00
11049;BME280;5577;42.706;23.160;2023-09-19T03:59:08;94539.38;;;12.74;100.00
11049;BME280;5577;42.706;23.160;2023-09-19T04:01:53;94531.06;;;12.75;100.00
11049;BME280;5577;42.706;23.160;2023-09-19T04:04:39;94531.31;;;12.70;100.00
11049;BME280;5577;42.706;23.160;2023-09-19T04:07:23;94532.66;;;12.80;100.00
11049;BME280;5577;42.706;23.160;2023-09-19T04:10:09;94534.63;;;12.83;100.00
11049;BME280;5577;42.706;23.160;2023-09-19T04:12:56;94530.84;;;12.84;100.00
11049;BME280;5577;42.706;23.160;2023-09-19T04:15:41;94541.91;;;12.86;100.00
11049;BME280;5577;42.706;23.160;2023-09-19T04:18:25;94538.47;;;12.85;100.00
11049;BME280;5577;42.706;23.160;2023-09-19T04:21:09;94525.59;;;12.87;100.00
11049;BME280;5577;42.706;23.160;2023-09-19T04:23:53;94522.03;;;12.80;100.00
11049;BME280;5577;42.706;23.160;2023-09-19T04:26:37;94518.81;;;12.90;100.00
11049;BME280;5577;42.706;23.160;2023-09-19T04:29:21;94517.00;;;12.94;100.00
11049;BME280;5577;42.706;23.160;2023-09-19T04:32:05;94516.75;;;12.99;100.00
11049;BME280;5577;42.706;23.160;2023-09-19T04:34:49;94518.84;;;13.09;100.00
11049;BME280;5577;42.706;23.160;2023-09-19T04:37:36;94522.16;;;13.25;100.00
11049;BME280;5577;42.706;23.160;2023-09-19T04:40:21;94516.59;;;13.30;100.00
11049;BME280;5577;42.706;23.160;2023-09-19T04:43:07;94514.53;;;13.42;100.00
11049;BME280;5577;42.706;23.160;2023-09-19T04:45:51;94517.00;;;13.54;100.00
11049;BME280;5577;42.706;23.160;2023-09-19T04:48:39;94518.72;;;13.66;100.00
11049;BME280;5577;42.706;23.160;2023-09-19T04:51:23;94522.09;;;13.63;100.00
11049;BME280;5577;42.706;23.160;2023-09-19T04:54:08;94517.31;;;13.72;100.00
11049;BME280;5577;42.706;23.160;2023-09-19T04:56:52;94516.53;;;13.71;100.00
11049;BME280;5577;42.706;23.160;2023-09-19T04:59:36;94524.16;;;13.73;100.00
11049;BME280;5577;42.706;23.160;2023-09-19T05:02:21;94522.69;;;13.75;100.00
11049;BME280;5577;42.706;23.160;2023-09-19T05:05:07;94519.88;;;13.91;100.00
11049;BME280;5577;42.706;23.160;2023-09-19T05:07:51;94511.66;;;13.99;100.00
11049;BME280;5577;42.706;23.160;2023-09-19T05:10:37;94519.47;;;14.38;100.00
11049;BME280;5577;42.706;23.160;2023-09-19T05:13:22;94519.72;;;14.55;100.00
11049;BME280;5577;42.706;23.160;2023-09-19T05:16:07;94526.91;;;14.81;100.00
11049;BME280;5577;42.706;23.160;2023-09-19T05:18:53;94527.97;;;15.06;100.00
11049;BME280;5577;42.706;23.160;2023-09-19T05:21:37;94510.53;;;15.15;100.00
11049;BME280;5577;42.706;23.160;2023-09-19T05:24:22;94511.09;;;15.31;100.00
11049;BME280;5577;42.706;23.160;2023-09-19T05:27:07;94511.28;;;15.45;100.00
11049;BME280;5577;42.706;23.160;2023-09-19T05:29:51;94502.59;;;15.55;100.00
11049;BME280;5577;42.706;23.160;2023-09-19T05:32:36;94503.00;;;15.57;100.00
11049;BME280;5577;42.706;23.160;2023-09-19T05:35:21;94503.84;;;15.65;100.00
11049;BME280;5577;42.706;23.160;2023-09-19T05:38:05;94502.03;;;15.76;100.00
11049;BME280;5577;42.706;23.160;2023-09-19T05:40:52;94483.75;;;15.78;100.00
11049;BME280;5577;42.706;23.160;2023-09-19T05:43:37;94500.66;;;15.96;100.00
11049;BME280;5577;42.706;23.160;2023-09-19T05:46:21;94490.78;;;16.00;100.00
11049;BME280;5577;42.706;23.160;2023-09-19T05:49:06;94492.03;;;16.13;100.00
11049;BME280;5577;42.706;23.160;2023-09-19T05:51:50;94489.44;;;16.30;100.00
11049;BME280;5577;42.706;23.160;2023-09-19T05:54:37;94453.53;;;16.21;100.00
11049;BME280;5577;42.706;23.160;2023-09-19T05:57:22;94479.97;;;16.40;100.00
11049;BME280;5577;42.706;23.160;2023-09-19T06:00:06;94476.50;;;16.32;100.00
11049;BME280;5577;42.706;23.160;2023-09-19T06:02:55;94482.13;;;16.20;100.00
11049;BME280;5577;42.706;23.160;2023-09-19T06:05:40;94476.78;;;16.17;100.00
11049;BME280;5577;42.706;23.160;2023-09-19T06:08:25;94481.19;;;15.95;100.00
11049;BME280;5577;42.706;23.160;2023-09-19T06:11:10;94474.09;;;16.17;100.00
11049;BME280;5577;42.706;23.160;2023-09-19T06:13:54;94467.22;;;16.12;100.00
11049;BME280;5577;42.706;23.160;2023-09-19T06:16:38;94461.50;;;16.14;100.00
11049;BME280;5577;42.706;23.160;2023-09-19T06:19:23;94466.94;;;16.31;100.00
11049;BME280;5577;42.706;23.160;2023-09-19T06:22:09;94465.44;;;16.34;100.00
11049;BME280;5577;42.706;23.160;2023-09-19T06:24:54;94466.22;;;16.41;100.00
11049;BME280;5577;42.706;23.160;2023-09-19T06:27:39;94469.44;;;16.68;100.00
11049;BME280;5577;42.706;23.160;2023-09-19T06:30:27;94474.81;;;16.71;100.00
11049;BME280;5577;42.706;23.160;2023-09-19T06:33:13;94464.13;;;16.71;100.00
11049;BME280;5577;42.706;23.160;2023-09-19T06:35:57;94475.09;;;16.52;100.00
11049;BME280;5577;42.706;23.160;2023-09-19T06:38:44;94464.41;;;16.52;100.00
11049;BME280;5577;42.706;23.160;2023-09-19T06:41:29;94474.34;;;16.52;100.00
11049;BME280;5577;42.706;23.160;2023-09-19T06:44:13;94473.63;;;16.62;100.00
11049;BME280;5577;42.706;23.160;2023-09-19T06:46:57;94471.34;;;16.64;100.00
11049;BME280;5577;42.706;23.160;2023-09-19T06:49:42;94473.66;;;16.69;100.00
11049;BME280;5577;42.706;23.160;2023-09-19T06:52:29;94473.00;;;16.96;100.00
11049;BME280;5577;42.706;23.160;2023-09-19T06:55:13;94465.75;;;16.97;100.00
11049;BME280;5577;42.706;23.160;2023-09-19T06:58:00;94472.97;;;16.89;100.00
11049;BME280;5577;42.706;23.160;2023-09-19T07:00:44;94479.53;;;17.06;100.00
11049;BME280;5577;42.706;23.160;2023-09-19T07:03:28;94482.97;;;17.10;100.00
11049;BME280;5577;42.706;23.160;2023-09-19T07:06:13;94489.13;;;17.17;100.00
11049;BME280;5577;42.706;23.160;2023-09-19T07:08:57;94483.50;;;17.47;100.00
11049;BME280;5577;42.706;23.160;2023-09-19T07:11:41;94485.41;;;17.61;100.00
11049;BME280;5577;42.706;23.160;2023-09-19T07:14:26;94480.06;;;17.57;100.00
11049;BME280;5577;42.706;23.160;2023-09-19T07:17:11;94492.69;;;17.85;100.00
11049;BME280;5577;42.706;23.160;2023-09-19T07:19:55;94486.97;;;17.93;100.00
11049;BME280;5577;42.706;23.160;2023-09-19T07:22:40;94483.50;;;18.07;100.00
11049;BME280;5577;42.706;23.160;2023-09-19T07:25:24;94489.25;;;18.23;100.00
11049;BME280;5577;42.706;23.160;2023-09-19T07:28:08;94484.25;;;18.28;100.00
11049;BME280;5577;42.706;23.160;2023-09-19T07:30:52;94485.41;;;18.24;100.00
11049;BME280;5577;42.706;23.160;2023-09-19T07:33:36;94484.25;;;18.28;100.00
11049;BME280;5577;42.706;23.160;2023-09-19T07:36:20;94483.88;;;18.44;100.00
11049;BME280;5577;42.706;23.160;2023-09-19T07:39:04;94483.88;;;18.51;100.00
11049;BME280;5577;42.706;23.160;2023-09-19T07:41:50;94480.34;;;18.71;100.00
11049;BME280;5577;42.706;23.160;2023-09-19T07:44:37;94486.09;;;18.77;100.00
11049;BME280;5577;42.706;23.160;2023-09-19T07:47:22;94488.84;;;18.49;100.00
11049;BME280;5577;42.706;23.160;2023-09-19T07:50:06;94478.50;;;18.33;100.00
11049;BME280;5577;42.706;23.160;2023-09-19T07:52:52;94483.88;;;18.40;100.00
11049;BME280;5577;42.706;23.160;2023-09-19T07:55:36;94473.84;;;18.76;100.00
11049;BME280;5577;42.706;23.160;2023-09-19T07:58:20;94463.44;;;18.88;100.00
11049;BME280;5577;42.706;23.160;2023-09-19T08:01:07;94464.31;;;18.57;100.00
11049;BME280;5577;42.706;23.160;2023-09-19T08:03:52;94459.72;;;18.58;100.00
11049;BME280;5577;42.706;23.160;2023-09-19T08:06:36;94466.28;;;18.39;100.00
11049;BME280;5577;42.706;23.160;2023-09-19T08:09:23;94452.06;;;18.53;100.00
11049;BME280;5577;42.706;23.160;2023-09-19T08:12:08;94437.44;;;18.75;100.00
11049;BME280;5577;42.706;23.160;2023-09-19T08:14:54;94456.09;;;19.03;100.00
11049;BME280;5577;42.706;23.160;2023-09-19T08:17:39;94455.63;;;19.25;100.00
11049;BME280;5577;42.706;23.160;2023-09-19T08:20:22;94427.25;;;19.21;100.00
11049;BME280;5577;42.706;23.160;2023-09-19T08:23:07;94468.19;;;19.39;100.00
11049;BME280;5577;42.706;23.160;2023-09-19T08:25:56;94458.44;;;19.62;100.00
11049;BME280;5577;42.706;23.160;2023-09-19T08:28:41;94461.63;;;19.98;100.00
11049;BME280;5577;42.706;23.160;2023-09-19T08:31:24;94457.31;;;19.60;100.00
11049;BME280;5577;42.706;23.160;2023-09-19T08:34:10;94449.75;;;19.44;100.00
11049;BME280;5577;42.706;23.160;2023-09-19T08:36:55;94443.84;;;19.63;100.00
11049;BME280;5577;42.706;23.160;2023-09-19T08:39:42;94448.28;;;19.88;100.00
11049;BME280;5577;42.706;23.160;2023-09-19T08:42:26;94445.84;;;19.52;100.00
11049;BME280;5577;42.706;23.160;2023-09-19T08:45:11;94445.75;;;19.66;100.00
11049;BME280;5577;42.706;23.160;2023-09-19T08:48:22;94447.19;;;19.82;100.00
11049;BME280;5577;42.706;23.160;2023-09-19T08:51:07;94435.56;;;19.95;100.00
11049;BME280;5577;42.706;23.160;2023-09-19T08:54:03;94436.38;;;20.36;100.00
11049;BME280;5577;42.706;23.160;2023-09-19T08:56:50;94437.03;;;20.77;100.00
11049;BME280;5577;42.706;23.160;2023-09-19T08:59:37;94436.50;;;20.93;100.00
11049;BME280;5577;42.706;23.160;2023-09-19T09:02:23;94434.84;;;21.02;100.00
11049;BME280;5577;42.706;23.160;2023-09-19T09:05:09;94436.69;;;20.75;100.00
11049;BME280;5577;42.706;23.160;2023-09-19T09:07:55;94438.06;;;20.53;100.00
11049;BME280;5577;42.706;23.160;2023-09-19T09:10:40;94432.84;;;20.76;100.00
11049;BME280;5577;42.706;23.160;2023-09-19T09:13:27;94428.56;;;20.79;100.00
11049;BME280;5577;42.706;23.160;2023-09-19T09:16:12;94420.94;;;20.74;100.00
11049;BME280;5577;42.706;23.160;2023-09-19T09:18:57;94421.28;;;20.76;100.00
11049;BME280;5577;42.706;23.160;2023-09-19T09:21:41;94424.19;;;20.92;100.00
11049;BME280;5577;42.706;23.160;2023-09-19T09:24:31;94420.91;;;21.37;100.00
11049;BME280;5577;42.706;23.160;2023-09-19T09:27:20;94408.59;;;21.63;100.00
11049;BME280;5577;42.706;23.160;2023-09-19T09:30:04;94397.13;;;22.28;100.00
11049;BME280;5577;42.706;23.160;2023-09-19T09:33:07;94392.88;;;22.50;100.00
11049;BME280;5577;42.706;23.160;2023-09-19T09:35:55;94398.41;;;22.20;100.00
11049;BME280;5577;42.706;23.160;2023-09-19T09:38:45;94396.72;;;21.83;100.00
11049;BME280;5577;42.706;23.160;2023-09-19T09:41:36;94395.00;;;21.70;100.00
11049;BME280;5577;42.706;23.160;2023-09-19T09:44:21;94380.97;;;22.05;100.00
11049;BME280;5577;42.706;23.160;2023-09-19T09:47:05;94391.34;;;22.06;100.00
11049;BME280;5577;42.706;23.160;2023-09-19T09:50:28;94380.09;;;21.88;100.00
11049;BME280;5577;42.706;23.160;2023-09-19T09:53:24;94393.75;;;22.01;100.00
11049;BME280;5577;42.706;23.160;2023-09-19T09:56:11;94390.13;;;21.88;100.00
11049;BME280;5577;42.706;23.160;2023-09-19T09:58:58;94383.97;;;21.87;100.00
11049;BME280;5577;42.706;23.160;2023-09-19T10:01:49;94384.22;;;22.16;100.00
11049;BME280;5577;42.706;23.160;2023-09-19T10:04:34;94375.34;;;21.73;100.00
11049;BME280;5577;42.706;23.160;2023-09-19T10:07:38;94380.13;;;21.62;100.00
11049;BME280;5577;42.706;23.160;2023-09-19T10:10:31;94384.81;;;21.58;100.00
11049;BME280;5577;42.706;23.160;2023-09-19T10:13:29;94383.16;;;21.64;100.00
11049;BME280;5577;42.706;23.160;2023-09-19T10:16:16;94392.06;;;21.87;100.00
11049;BME280;5577;42.706;23.160;2023-09-19T10:19:05;94395.38;;;21.95;100.00
11049;BME280;5577;42.706;23.160;2023-09-19T10:21:54;94378.34;;;21.78;100.00
11049;BME280;5577;42.706;23.160;2023-09-19T10:24:40;94392.69;;;21.95;100.00
11049;BME280;5577;42.706;23.160;2023-09-19T10:27:29;94383.66;;;22.05;100.00
11049;BME280;5577;42.706;23.160;2023-09-19T10:30:14;94375.13;;;22.10;100.00
11049;BME280;5577;42.706;23.160;2023-09-19T10:33:01;94377.81;;;21.87;100.00
11049;BME280;5577;42.706;23.160;2023-09-19T10:35:48;94374.00;;;21.84;100.00
11049;BME280;5577;42.706;23.160;2023-09-19T10:38:33;94370.63;;;21.80;100.00
11049;BME280;5577;42.706;23.160;2023-09-19T10:41:19;94372.19;;;21.78;100.00
11049;BME280;5577;42.706;23.160;2023-09-19T10:44:05;94368.19;;;21.63;100.00
11049;BME280;5577;42.706;23.160;2023-09-19T10:46:49;94368.53;;;21.65;100.00
11049;BME280;5577;42.706;23.160;2023-09-19T10:49:43;94357.75;;;21.65;100.00
11049;BME280;5577;42.706;23.160;2023-09-19T10:52:30;94359.56;;;21.71;100.00
11049;BME280;5577;42.706;23.160;2023-09-19T10:55:17;94359.84;;;21.80;100.00
11049;BME280;5577;42.706;23.160;2023-09-19T10:58:05;94358.28;;;21.79;100.00
11049;BME280;5577;42.706;23.160;2023-09-19T11:00:59;94358.22;;;22.06;100.00
11049;BME280;5577;42.706;23.160;2023-09-19T11:03:46;94351.28;;;21.85;100.00
11049;BME280;5577;42.706;23.160;2023-09-19T11:06:32;94356.19;;;21.90;100.00
11049;BME280;5577;42.706;23.160;2023-09-19T11:09:17;94354.13;;;22.40;100.00
11049;BME280;5577;42.706;23.160;2023-09-19T11:12:06;94346.03;;;22.40;100.00
11049;BME280;5577;42.706;23.160;2023-09-19T11:14:50;94340.72;;;22.57;100.00
11049;BME280;5577;42.706;23.160;2023-09-19T11:17:38;94338.66;;;23.00;100.00
11049;BME280;5577;42.706;23.160;2023-09-19T11:20:25;94340.84;;;22.69;100.00
11049;BME280;5577;42.706;23.160;2023-09-19T11:23:19;94340.78;;;23.08;100.00
11049;BME280;5577;42.706;23.160;2023-09-19T11:26:41;94330.56;;;23.16;100.00
11049;BME280;5577;42.706;23.160;2023-09-19T11:29:31;94322.50;;;22.80;100.00
11049;BME280;5577;42.706;23.160;2023-09-19T11:32:15;94317.09;;;22.61;100.00
11049;BME280;5577;42.706;23.160;2023-09-19T11:35:07;94321.44;;;23.10;100.00
11049;BME280;5577;42.706;23.160;2023-09-19T11:40:36;94303.91;;;23.18;100.00
11049;BME280;5577;42.706;23.160;2023-09-19T11:43:30;94301.22;;;23.34;100.00
11049;BME280;5577;42.706;23.160;2023-09-19T11:46:16;94306.03;;;23.74;100.00
11049;BME280;5577;42.706;23.160;2023-09-19T11:49:06;94297.84;;;23.78;98.23
11049;BME280;5577;42.706;23.160;2023-09-19T11:51:57;94293.94;;;23.79;99.44
11049;BME280;5577;42.706;23.160;2023-09-19T11:54:43;94292.38;;;23.33;100.00
11049;BME280;5577;42.706;23.160;2023-09-19T11:57:30;94284.50;;;23.71;100.00
11049;BME280;5577;42.706;23.160;2023-09-19T12:00:18;94286.38;;;24.31;96.00
11049;BME280;5577;42.706;23.160;2023-09-19T12:03:08;94284.97;;;24.67;91.05
11049;BME280;5577;42.706;23.160;2023-09-19T12:05:53;94275.78;;;25.28;86.94
11049;BME280;5577;42.706;23.160;2023-09-19T12:08:39;94277.50;;;25.22;87.85
11049;BME280;5577;42.706;23.160;2023-09-19T12:11:26;94268.31;;;25.19;86.86
11049;BME280;5577;42.706;23.160;2023-09-19T12:14:22;94259.53;;;25.28;84.49
11049;BME280;5577;42.706;23.160;2023-09-19T12:17:06;94210.63;;;25.31;83.78
11049;BME280;5577;42.706;23.160;2023-09-19T12:19:55;94263.16;;;25.71;80.42
11049;BME280;5577;42.706;23.160;2023-09-19T12:22:40;94244.22;;;26.14;80.73
11049;BME280;5577;42.706;23.160;2023-09-19T12:25:26;94243.31;;;25.96;78.95
11049;BME280;5577;42.706;23.160;2023-09-19T12:28:11;94245.19;;;26.20;76.34
11049;BME280;5577;42.706;23.160;2023-09-19T12:30:55;94243.59;;;26.10;78.58
11049;BME280;5577;42.706;23.160;2023-09-19T12:33:40;94242.22;;;26.06;76.67
11049;BME280;5577;42.706;23.160;2023-09-19T12:36:24;94204.31;;;25.81;77.89
11049;BME280;5577;42.706;23.160;2023-09-19T12:39:26;94241.03;;;26.59;74.96
11049;BME280;5577;42.706;23.160;2023-09-19T12:42:11;94230.00;;;26.84;75.62
11049;BME280;5577;42.706;23.160;2023-09-19T12:44:58;94229.63;;;26.42;75.68
11049;BME280;5577;42.706;23.160;2023-09-19T12:51:13;94237.97;;;26.48;74.06
11049;BME280;5577;42.706;23.160;2023-09-19T12:53:57;94224.59;;;26.32;77.37
11049;BME280;5577;42.706;23.160;2023-09-19T12:56:43;94223.13;;;26.92;75.37
11049;BME280;5577;42.706;23.160;2023-09-19T12:59:31;94231.91;;;26.22;74.65
11049;BME280;5577;42.706;23.160;2023-09-19T13:02:16;94216.38;;;26.01;75.55
11049;BME280;5577;42.706;23.160;2023-09-19T13:05:04;94212.28;;;26.18;75.55
11049;BME280;5577;42.706;23.160;2023-09-19T13:07:50;94208.22;;;25.80;75.44
11049;BME280;5577;42.706;23.160;2023-09-19T13:17:01;94197.97;;;25.62;80.53
11049;BME280;5577;42.706;23.160;2023-09-19T13:19:48;94200.47;;;25.91;80.17
11049;BME280;5577;42.706;23.160;2023-09-19T13:22:40;94198.63;;;25.88;81.16
11049;BME280;5577;42.706;23.160;2023-09-19T13:25:28;94202.75;;;25.92;79.44
11049;BME280;5577;42.706;23.160;2023-09-19T13:28:13;94196.81;;;25.85;78.09
11049;BME280;5577;42.706;23.160;2023-09-19T13:30:57;94200.53;;;25.78;77.52
11049;BME280;5577;42.706;23.160;2023-09-19T13:33:46;94192.34;;;25.35;78.33
11049;BME280;5577;42.706;23.160;2023-09-19T13:36:30;94192.13;;;25.04;81.55
11049;BME280;5577;42.706;23.160;2023-09-19T13:39:16;94193.13;;;24.85;81.77
11049;BME280;5577;42.706;23.160;2023-09-19T13:42:00;94183.72;;;24.77;84.55
11049;BME280;5577;42.706;23.160;2023-09-19T13:44:46;94189.78;;;24.94;88.25
11049;BME280;5577;42.706;23.160;2023-09-19T13:47:30;94190.19;;;25.05;83.68
11049;BME280;5577;42.706;23.160;2023-09-19T13:50:14;94194.72;;;25.33;81.63
11049;BME280;5577;42.706;23.160;2023-09-19T13:52:58;94194.78;;;25.55;77.97
11049;BME280;5577;42.706;23.160;2023-09-19T13:55:44;94189.91;;;25.93;76.39
11049;BME280;5577;42.706;23.160;2023-09-19T13:58:28;94184.84;;;26.16;74.66
11049;BME280;5577;42.706;23.160;2023-09-19T14:01:13;94181.13;;;26.01;74.65
11049;BME280;5577;42.706;23.160;2023-09-19T14:03:57;94191.19;;;26.22;75.16
11049;BME280;5577;42.706;23.160;2023-09-19T14:06:42;94171.25;;;25.73;74.85
11049;BME280;5577;42.706;23.160;2023-09-19T14:09:27;94190.31;;;25.48;75.79
11049;BME280;5577;42.706;23.160;2023-09-19T14:12:11;94186.09;;;25.81;77.83
11049;BME280;5577;42.706;23.160;2023-09-19T14:14:55;94189.53;;;25.82;78.39
11049;BME280;5577;42.706;23.160;2023-09-19T14:17:40;94183.81;;;25.80;77.84
11049;BME280;5577;42.706;23.160;2023-09-19T14:20:31;94182.19;;;25.48;76.66
11049;BME280;5577;42.706;23.160;2023-09-19T14:23:15;94172.03;;;25.40;77.72
11049;BME280;5577;42.706;23.160;2023-09-19T14:26:01;94174.84;;;25.49;77.86
11049;BME280;5577;42.706;23.160;2023-09-19T14:28:45;94176.06;;;25.35;79.11
11049;BME280;5577;42.706;23.160;2023-09-19T14:31:29;94168.38;;;25.34;79.97
11049;BME280;5577;42.706;23.160;2023-09-19T14:34:13;94170.66;;;25.10;81.67
11049;BME280;5577;42.706;23.160;2023-09-19T14:36:58;94159.56;;;24.95;83.51
11049;BME280;5577;42.706;23.160;2023-09-19T14:39:43;94162.34;;;24.92;84.58
11049;BME280;5577;42.706;23.160;2023-09-19T14:42:28;94163.00;;;24.83;86.27
11049;BME280;5577;42.706;23.160;2023-09-19T14:45:12;94164.44;;;24.88;90.57
11049;BME280;5577;42.706;23.160;2023-09-19T14:47:58;94156.88;;;24.83;89.98
11049;BME280;5577;42.706;23.160;2023-09-19T14:50:42;94159.59;;;24.70;89.62
11049;BME280;5577;42.706;23.160;2023-09-19T14:53:27;94143.84;;;24.53;90.77
11049;BME280;5577;42.706;23.160;2023-09-19T14:56:11;94150.91;;;24.63;94.93
11049;BME280;5577;42.706;23.160;2023-09-19T14:58:56;94154.38;;;24.76;91.47